Time;durP1;ratioP1;P1;durP2;ratioP2;P2;SDS_P1;SDS_P2;PMS_P1;PMS_P2;Temp;Humidity;BMP_temperature;BMP_pressure;BME280_temperature;BME280_humidity;BME280_pressure;Samples;Min_cycle;Max_cycle;Signal;HPM_P1;HPM_P2
2023/05/28 00:02:19;;;;;;;177.82;67.68;;;;;;;18.42;50.43;102027.09;5008418;28;20109;-77
2023/05/28 00:04:44;;;;;;;183.80;68.30;;;;;;;18.42;50.26;102024.44;4983977;28;20033;-77
2023/05/28 00:07:10;;;;;;;183.55;69.45;;;;;;;18.42;50.11;102024.44;4982446;28;20030;-77
2023/05/28 00:09:38;;;;;;;183.13;68.43;;;;;;;18.41;50.22;102027.97;5004623;28;20109;-78
2023/05/28 00:12:05;;;;;;;178.60;68.50;;;;;;;18.41;50.45;102030.63;4992547;28;20557;-78
2023/05/28 00:14:30;;;;;;;189.27;68.80;;;;;;;18.40;50.28;102024.44;4987700;28;20017;-77
2023/05/28 00:16:56;;;;;;;183.82;68.95;;;;;;;18.39;50.44;102028.03;4987764;28;20425;-77
2023/05/28 00:19:22;;;;;;;180.13;66.88;;;;;;;18.38;50.40;102018.34;5002053;28;20025;-77
2023/05/28 00:21:47;;;;;;;189.32;68.53;;;;;;;18.38;50.67;102028.94;4996335;28;20053;-76
2023/05/28 00:24:13;;;;;;;199.85;70.93;;;;;;;18.36;50.39;102020.16;4993960;28;20057;-78
2023/05/28 00:26:38;;;;;;;185.02;68.00;;;;;;;18.36;50.75;102022.81;4995644;28;20053;-77
2023/05/28 00:29:03;;;;;;;199.85;70.68;;;;;;;18.36;50.11;102025.44;4992952;28;20034;-78
2023/05/28 00:31:29;;;;;;;183.75;66.95;;;;;;;18.35;50.26;102018.44;5019739;28;20022;-77
2023/05/28 00:33:54;;;;;;;194.10;69.68;;;;;;;18.34;50.81;102011.41;4997726;28;20394;-76
2023/05/28 00:36:19;;;;;;;179.55;66.63;;;;;;;18.34;50.24;102014.06;5012372;28;20084;-76
2023/05/28 00:38:45;;;;;;;180.93;67.25;;;;;;;18.34;50.37;102021.13;5014837;28;20076;-76
2023/05/28 00:41:10;;;;;;;194.82;70.65;;;;;;;18.34;50.12;102015.84;4982515;28;20022;-77
2023/05/28 00:43:35;;;;;;;189.57;69.93;;;;;;;18.32;50.51;102017.66;5014994;28;20040;-79
2023/05/28 00:46:03;;;;;;;179.90;67.35;;;;;;;18.30;50.35;102017.69;4993342;28;20033;-78
2023/05/28 00:48:29;;;;;;;179.23;65.97;;;;;;;18.31;50.76;102014.16;4999423;28;20049;-78
2023/05/28 00:50:54;;;;;;;185.05;68.03;;;;;;;18.31;50.93;102014.16;4996005;28;20494;-76
2023/05/28 00:53:19;;;;;;;210.55;71.90;;;;;;;18.31;50.63;102007.97;4992837;28;20479;-78
2023/05/28 00:55:45;;;;;;;184.93;68.80;;;;;;;18.30;50.76;102007.13;4988208;28;20053;-78
2023/05/28 00:58:11;;;;;;;181.88;71.93;;;;;;;18.29;50.24;102005.38;4973743;28;20024;-78
2023/05/28 01:00:37;;;;;;;180.13;67.55;;;;;;;18.28;50.69;102003.63;5015275;28;20061;-79
2023/05/28 01:03:05;;;;;;;186.70;70.63;;;;;;;18.28;50.93;102006.28;4979872;28;20065;-78
2023/05/28 01:05:31;;;;;;;185.98;67.07;;;;;;;18.27;50.33;102009.84;4986886;28;20361;-78
2023/05/28 01:08:01;;;;;;;196.48;69.93;;;;;;;18.29;50.78;102010.66;4991371;28;20476;-77
2023/05/28 01:10:27;;;;;;;182.23;68.85;;;;;;;18.29;50.60;102012.47;4980948;28;20051;-78
2023/05/28 01:12:53;;;;;;;195.23;70.68;;;;;;;18.27;50.23;102007.22;4990790;28;20104;-77
2023/05/28 01:15:18;;;;;;;175.80;66.38;;;;;;;18.28;50.47;102008.91;5002562;28;20114;-77
2023/05/28 01:17:44;;;;;;;179.45;67.93;;;;;;;18.27;51.09;102001.94;5000092;28;20025;-77
2023/05/28 01:20:13;;;;;;;180.55;68.38;;;;;;;18.27;51.07;102001.03;5002297;28;20026;-77
2023/05/28 01:22:38;;;;;;;182.50;67.72;;;;;;;18.27;50.23;101996.63;4995756;28;20018;-78
2023/05/28 01:25:09;;;;;;;184.88;68.68;;;;;;;18.25;50.64;101998.44;4983526;28;20029;-78
2023/05/28 01:27:43;;;;;;;186.50;70.60;;;;;;;18.25;50.38;101998.44;5011214;28;20119;-79
2023/05/28 01:30:11;;;;;;;184.57;66.85;;;;;;;18.25;50.21;101993.16;4977549;28;20023;-78
2023/05/28 01:32:37;;;;;;;184.65;66.03;;;;;;;18.26;50.53;102005.47;4998657;28;20322;-77
2023/05/28 01:35:04;;;;;;;186.27;67.13;;;;;;;18.24;50.87;101992.28;4999117;28;20026;-78
2023/05/28 01:37:33;;;;;;;192.23;68.57;;;;;;;18.24;51.19;101988.75;4989296;28;20025;-77
2023/05/28 01:39:59;;;;;;;187.35;69.35;;;;;;;18.25;50.53;101993.16;4991951;28;20097;-77
2023/05/28 01:42:25;;;;;;;195.65;68.63;;;;;;;18.24;51.02;101987.00;4980339;28;20105;-77
2023/05/28 01:44:51;;;;;;;190.27;69.80;;;;;;;18.23;50.98;101987.06;4996804;28;20037;-77
2023/05/28 01:47:16;;;;;;;183.77;68.15;;;;;;;18.23;51.04;101979.13;5004990;28;20138;-77
2023/05/28 01:49:42;;;;;;;184.20;69.80;;;;;;;18.21;50.60;101980.91;4990828;28;20102;-77
2023/05/28 01:52:07;;;;;;;186.60;69.93;;;;;;;18.20;50.86;101979.19;4986431;28;20064;-76
2023/05/28 01:54:33;;;;;;;193.10;70.45;;;;;;;18.19;50.83;101980.97;4993332;28;20499;-76
2023/05/28 01:56:59;;;;;;;183.95;69.20;;;;;;;18.18;50.86;101987.16;4988692;28;20034;-76
2023/05/28 01:59:25;;;;;;;190.90;68.85;;;;;;;18.18;50.88;101975.72;5005658;28;20026;-78
2023/05/28 02:01:50;;;;;;;183.25;66.75;;;;;;;18.17;51.24;101982.78;5003774;28;20057;-77
2023/05/28 02:04:16;;;;;;;216.00;74.72;;;;;;;18.19;50.51;101980.13;4978829;28;20018;-76
2023/05/28 02:06:45;;;;;;;198.25;71.68;;;;;;;18.24;51.32;101978.19;5003433;28;20141;-74
2023/05/28 02:09:10;;;;;;;203.02;71.05;;;;;;;18.26;51.57;101988.75;4994371;28;20038;-73
2023/05/28 02:11:36;;;;;;;207.80;72.38;;;;;;;18.20;52.36;101984.47;5001250;28;20109;-77
2023/05/28 02:14:01;;;;;;;219.48;73.40;;;;;;;18.14;52.76;101980.22;5025192;28;20033;-76
2023/05/28 02:16:27;;;;;;;197.95;71.30;;;;;;;18.11;53.27;101982.09;4990356;28;20026;-76
2023/05/28 02:18:52;;;;;;;200.27;70.90;;;;;;;18.04;53.78;101974.31;4987533;28;20023;-76
2023/05/28 02:21:18;;;;;;;204.48;71.13;;;;;;;18.01;54.65;101977.06;5014402;28;20450;-77
2023/05/28 02:23:46;;;;;;;200.65;71.75;;;;;;;17.96;54.70;101973.66;5009805;28;20030;-78
2023/05/28 02:26:11;;;;;;;205.70;70.30;;;;;;;17.91;54.78;101978.16;5021300;28;20022;-78
2023/05/28 02:28:37;;;;;;;198.32;69.22;;;;;;;17.89;54.64;101982.66;5006855;28;20041;-78
2023/05/28 02:31:02;;;;;;;199.18;71.00;;;;;;;17.86;55.11;101980.94;4986161;28;20034;-78
2023/05/28 02:33:28;;;;;;;214.93;71.32;;;;;;;17.83;55.34;101981.03;5005055;28;20028;-77
2023/05/28 02:35:53;;;;;;;202.32;70.55;;;;;;;17.81;55.08;101976.69;4999109;28;20052;-77
2023/05/28 02:38:19;;;;;;;200.43;70.45;;;;;;;17.80;55.40;101974.94;5009183;28;20023;-77
2023/05/28 02:40:45;;;;;;;198.90;70.47;;;;;;;17.78;55.45;101979.41;4979749;28;20022;-77
2023/05/28 02:43:10;;;;;;;197.15;68.32;;;;;;;17.74;55.63;101979.47;4989161;28;20084;-77
2023/05/28 02:45:36;;;;;;;211.15;72.45;;;;;;;17.74;55.34;101975.97;5006784;28;20026;-77
2023/05/28 02:48:01;;;;;;;205.18;71.43;;;;;;;17.71;56.27;101971.66;5004235;28;20033;-78
2023/05/28 02:50:26;;;;;;;194.32;68.30;;;;;;;17.72;55.60;101980.44;5010247;28;20034;-77
2023/05/28 02:52:51;;;;;;;201.75;69.20;;;;;;;17.69;56.11;101981.38;4981204;28;20026;-77
2023/05/28 02:55:17;;;;;;;187.93;68.63;;;;;;;17.68;56.62;101978.78;4992860;28;20061;-77
2023/05/28 02:57:42;;;;;;;194.98;70.85;;;;;;;17.67;56.17;101975.28;4993239;28;20088;-78
2023/05/28 03:00:09;;;;;;;198.95;68.63;;;;;;;17.66;56.39;101980.59;4993974;28;20081;-78
2023/05/28 03:02:35;;;;;;;213.68;71.88;;;;;;;17.64;56.71;101978.00;4990813;28;20025;-77
2023/05/28 03:05:02;;;;;;;207.80;70.13;;;;;;;17.63;56.81;101978.00;4999296;28;20030;-77
2023/05/28 03:07:30;;;;;;;194.85;70.18;;;;;;;17.63;56.93;101986.81;5014026;28;20368;-77
2023/05/28 03:09:57;;;;;;;202.27;72.32;;;;;;;17.63;57.25;101994.75;5000240;28;20030;-77
2023/05/28 03:12:22;;;;;;;236.30;74.97;;;;;;;17.62;57.37;101981.59;5002575;22;20122;-69
2023/05/28 03:14:47;;;;;;;198.75;69.32;;;;;;;17.62;58.10;101982.44;4992825;28;20069;-72
2023/05/28 03:17:13;;;;;;;189.23;68.00;;;;;;;17.62;57.10;101982.44;4995142;28;20018;-72
2023/05/28 03:19:38;;;;;;;193.35;67.32;;;;;;;17.63;57.43;101989.47;4997373;28;20030;-69
2023/05/28 03:22:03;;;;;;;199.88;68.97;;;;;;;17.62;57.70;101977.16;5007382;28;20471;-73
2023/05/28 03:24:30;;;;;;;192.65;68.03;;;;;;;17.63;57.89;101984.19;4983350;28;20121;-73
2023/05/28 03:26:56;;;;;;;196.60;70.03;;;;;;;17.63;57.83;101986.81;4993683;28;20030;-73
2023/05/28 03:29:22;;;;;;;186.32;67.72;;;;;;;17.64;57.95;101992.97;4983125;28;20023;-72
2023/05/28 03:31:47;;;;;;;189.48;67.25;;;;;;;17.66;58.00;101989.38;5002667;28;20037;-73
2023/05/28 03:34:13;;;;;;;227.98;72.47;;;;;;;17.67;57.88;101996.41;4984705;28;20466;-73
2023/05/28 03:36:41;;;;;;;195.40;69.45;;;;;;;17.69;58.51;101991.09;4976475;28;20582;-73
2023/05/28 03:39:10;;;;;;;196.45;68.82;;;;;;;17.69;58.21;101988.44;4977225;28;20018;-72
2023/05/28 03:41:36;;;;;;;194.00;67.03;;;;;;;17.70;58.87;101993.69;4995416;28;20026;-71
2023/05/28 03:44:01;;;;;;;188.88;66.68;;;;;;;17.72;58.46;101989.25;4971920;28;20038;-72
2023/05/28 03:46:27;;;;;;;195.85;67.50;;;;;;;17.72;58.80;101981.31;4992750;28;20029;-71
2023/05/28 03:48:52;;;;;;;193.00;68.38;;;;;;;17.74;58.63;101976.84;4977881;28;20496;-72
2023/05/28 03:51:17;;;;;;;193.60;69.00;;;;;;;17.76;58.73;101978.59;4979750;28;20407;-71
2023/05/28 03:53:43;;;;;;;195.65;68.55;;;;;;;17.74;59.12;101976.84;4994708;28;20030;-70
2023/05/28 03:56:08;;;;;;;190.32;66.57;;;;;;;17.77;58.64;101975.91;4975828;28;20022;-72
2023/05/28 03:58:33;;;;;;;194.90;72.88;;;;;;;17.78;58.73;101976.75;4989317;28;20076;-71
2023/05/28 04:01:00;;;;;;;195.45;69.97;;;;;;;17.80;59.29;101969.66;4996653;28;20030;-70
2023/05/28 04:03:25;;;;;;;194.35;67.65;;;;;;;17.83;59.16;101977.50;4993243;28;20480;-73
2023/05/28 04:05:51;;;;;;;198.65;67.55;;;;;;;17.82;58.95;101973.13;4974280;28;20125;-71
2023/05/28 04:08:17;;;;;;;191.52;67.60;;;;;;;17.85;58.55;101978.34;4976834;28;20033;-71
2023/05/28 04:10:42;;;;;;;189.20;66.22;;;;;;;17.85;58.80;101978.34;4995946;28;20125;-71
2023/05/28 04:13:08;;;;;;;188.80;66.78;;;;;;;17.88;59.34;101980.91;4990075;28;20076;-71
2023/05/28 04:15:33;;;;;;;201.15;70.50;;;;;;;17.90;59.71;101981.72;4990052;28;20034;-74
2023/05/28 04:17:58;;;;;;;182.88;65.00;;;;;;;17.93;59.85;101986.97;4980694;28;20356;-71
2023/05/28 04:20:24;;;;;;;194.35;67.38;;;;;;;17.94;59.63;101980.75;4989499;28;20029;-71
2023/05/28 04:22:49;;;;;;;208.52;68.50;;;;;;;17.96;59.20;101986.88;4962207;28;20026;-70
2023/05/28 04:25:15;;;;;;;205.60;69.78;;;;;;;17.97;59.67;101975.41;4976393;28;20121;-71
2023/05/28 04:27:44;;;;;;;200.60;70.47;;;;;;;17.99;59.85;101976.22;4955702;28;20522;-71
2023/05/28 04:30:11;;;;;;;186.90;67.15;;;;;;;18.00;59.49;101983.25;4973088;28;20101;-71
2023/05/28 04:32:38;;;;;;;192.95;68.40;;;;;;;18.03;59.84;101988.44;4976979;28;20038;-71
2023/05/28 04:35:05;;;;;;;189.57;66.20;;;;;;;18.06;59.61;101985.75;4983109;28;20110;-71
2023/05/28 04:37:33;;;;;;;193.35;67.65;;;;;;;18.08;59.87;101986.56;4993550;28;21179;-71
2023/05/28 04:39:58;;;;;;;191.65;66.82;;;;;;;18.12;60.30;101986.47;4959790;28;20024;-72
2023/05/28 04:42:24;;;;;;;201.90;68.07;;;;;;;18.14;59.74;101982.00;4992018;28;20026;-71
2023/05/28 04:44:49;;;;;;;189.90;67.32;;;;;;;18.17;59.39;101987.22;4974956;28;20022;-71
2023/05/28 04:47:15;;;;;;;192.43;67.40;;;;;;;18.19;59.18;101980.13;4963344;28;20030;-71
2023/05/28 04:49:40;;;;;;;198.25;68.28;;;;;;;18.22;59.68;101980.03;4980143;28;20105;-71
2023/05/28 04:52:06;;;;;;;198.88;69.13;;;;;;;18.26;59.96;101989.59;4996306;28;20125;-71
2023/05/28 04:54:31;;;;;;;190.88;68.30;;;;;;;18.28;60.09;101987.75;4973703;28;20049;-71
2023/05/28 04:56:57;;;;;;;187.77;66.10;;;;;;;18.32;60.19;101989.41;4977758;28;20483;-71
2023/05/28 04:59:22;;;;;;;194.68;67.07;;;;;;;18.36;59.79;101991.06;4977448;28;20391;-70
2023/05/28 05:01:47;;;;;;;187.98;67.63;;;;;;;18.40;59.43;101991.84;4982135;28;20566;-72
2023/05/28 05:04:13;;;;;;;191.82;68.85;;;;;;;18.44;60.10;101982.91;4967513;28;20495;-71
2023/05/28 05:06:38;;;;;;;190.98;66.47;;;;;;;18.50;60.36;101984.50;4969458;28;20019;-71
2023/05/28 05:09:07;;;;;;;188.55;67.95;;;;;;;18.56;60.61;101982.56;4994173;28;20022;-71
2023/05/28 05:11:33;;;;;;;196.32;68.70;;;;;;;18.61;60.46;101982.44;4968043;28;20034;-70
2023/05/28 05:13:58;;;;;;;190.93;68.95;;;;;;;18.69;60.56;101982.19;4967451;28;20488;-71
2023/05/28 05:16:24;;;;;;;191.20;68.68;;;;;;;18.79;60.15;101982.78;4980037;28;20058;-71
2023/05/28 05:18:49;;;;;;;187.18;66.65;;;;;;;18.88;59.29;101978.13;4994943;28;20033;-71
2023/05/28 05:21:14;;;;;;;191.52;68.40;;;;;;;19.00;59.16;101982.16;4983706;28;20021;-71
2023/05/28 05:23:40;;;;;;;189.13;68.80;;;;;;;19.12;58.79;101982.72;4959651;28;20069;-71
2023/05/28 05:26:09;;;;;;;180.43;66.15;;;;;;;19.20;58.27;101981.53;4959016;28;20081;-71
2023/05/28 05:28:35;;;;;;;188.73;65.82;;;;;;;19.28;58.33;101981.28;4989404;28;20080;-71
2023/05/28 05:31:00;;;;;;;189.38;66.93;;;;;;;19.36;58.50;101973.97;4993811;28;20031;-72
2023/05/28 05:33:25;;;;;;;189.70;70.20;;;;;;;19.41;58.31;101972.03;4995107;28;20030;-71
2023/05/28 05:35:51;;;;;;;188.18;66.25;;;;;;;19.45;58.52;101966.63;4991807;28;20054;-72
2023/05/28 05:38:16;;;;;;;188.20;67.40;;;;;;;19.45;58.64;101967.47;4987763;28;20034;-72
2023/05/28 05:40:42;;;;;;;189.00;67.35;;;;;;;19.47;58.01;101970.06;4974156;28;20019;-72
2023/05/28 05:43:07;;;;;;;189.27;67.55;;;;;;;19.49;58.47;101976.19;4975374;28;20034;-71
2023/05/28 05:45:32;;;;;;;187.43;67.00;;;;;;;19.53;58.22;101980.47;4982497;28;20028;-72
2023/05/28 05:47:58;;;;;;;189.70;67.93;;;;;;;19.55;57.90;101979.50;4969643;28;20045;-72
2023/05/28 05:50:23;;;;;;;189.00;68.03;;;;;;;19.61;57.71;101982.88;4973506;28;20022;-72
2023/05/28 05:52:48;;;;;;;184.90;65.80;;;;;;;19.65;57.24;101974.75;4993640;28;20399;-72
2023/05/28 05:55:14;;;;;;;194.57;67.20;;;;;;;19.72;57.13;101986.88;4990481;28;20510;-72
2023/05/28 05:57:39;;;;;;;188.73;66.88;;;;;;;19.76;57.11;101983.19;4963062;28;20531;-72
2023/05/28 06:00:07;;;;;;;184.75;65.40;;;;;;;19.82;56.87;101986.59;4974844;28;20034;-72
2023/05/28 06:02:33;;;;;;;188.35;65.75;;;;;;;19.86;56.36;101993.53;4974598;28;20480;-72
2023/05/28 06:04:58;;;;;;;189.07;66.35;;;;;;;19.88;56.08;101983.75;5008028;28;20033;-72
2023/05/28 06:07:23;;;;;;;195.85;68.15;;;;;;;19.90;56.23;101990.69;4981543;28;20026;-72
2023/05/28 06:09:49;;;;;;;190.30;66.85;;;;;;;19.95;56.04;101987.91;4991300;28;20034;-72
2023/05/28 06:12:15;;;;;;;189.50;66.78;;;;;;;20.00;55.90;101993.94;4973375;28;20038;-72
2023/05/28 06:14:40;;;;;;;192.32;68.10;;;;;;;20.10;55.59;102002.41;4988138;28;20026;-72
2023/05/28 06:17:06;;;;;;;203.00;68.38;;;;;;;20.36;54.63;101992.66;4991377;28;20030;-71
2023/05/28 06:19:31;;;;;;;195.93;68.28;;;;;;;20.73;53.67;101997.44;4955441;28;20037;-72
2023/05/28 06:21:57;;;;;;;199.00;67.60;;;;;;;21.05;52.93;101992.69;4988480;28;20066;-72
2023/05/28 06:24:22;;;;;;;192.75;67.80;;;;;;;21.32;52.02;101996.94;4959916;28;20030;-72
2023/05/28 06:26:47;;;;;;;190.85;67.60;;;;;;;21.36;52.09;102002.06;4990734;28;20514;-72
2023/05/28 06:29:13;;;;;;;213.90;70.90;;;;;;;21.30;51.86;101997.00;4954657;28;20492;-72
2023/05/28 06:31:40;;;;;;;210.45;69.60;;;;;;;21.23;52.16;101995.53;4959014;28;20035;-72
2023/05/28 06:34:05;;;;;;;203.13;71.15;;;;;;;21.25;51.94;101994.53;4984485;28;20030;-72
2023/05/28 06:36:30;;;;;;;193.50;67.95;;;;;;;21.38;52.01;102000.22;4988411;28;20040;-73
2023/05/28 06:38:56;;;;;;;188.02;67.68;;;;;;;21.54;51.69;102002.25;4953863;28;20014;-72
2023/05/28 06:41:21;;;;;;;191.98;67.07;;;;;;;21.71;51.17;101994.44;4991447;28;20129;-72
2023/05/28 06:43:47;;;;;;;190.07;68.10;;;;;;;21.89;50.34;101989.25;4974349;28;20487;-72
2023/05/28 06:46:13;;;;;;;191.00;67.90;;;;;;;22.06;49.79;101994.72;4955788;28;20037;-72
2023/05/28 06:48:38;;;;;;;191.38;67.95;;;;;;;22.16;49.93;101989.00;4974728;28;20054;-72
2023/05/28 06:51:04;;;;;;;187.82;67.55;;;;;;;22.25;49.82;101991.22;4992653;28;20041;-73
2023/05/28 06:53:29;;;;;;;188.50;67.22;;;;;;;22.28;49.18;101985.78;4960862;28;20057;-72
2023/05/28 06:55:55;;;;;;;193.25;68.13;;;;;;;22.33;49.21;101990.88;4993049;28;20054;-73
2023/05/28 06:58:20;;;;;;;195.35;76.15;;;;;;;22.40;49.36;102000.34;4986372;28;20023;-73
2023/05/28 07:00:46;;;;;;;191.75;68.97;;;;;;;22.34;49.47;101990.84;4984362;28;20149;-73
2023/05/28 07:03:11;;;;;;;195.60;69.30;;;;;;;22.28;49.59;101997.28;4975609;28;20085;-71
2023/05/28 07:05:36;;;;;;;198.57;71.40;;;;;;;22.16;49.95;101996.97;4974923;28;20030;-73
2023/05/28 07:08:02;;;;;;;191.18;69.63;;;;;;;22.01;50.32;101999.38;4993224;28;20089;-73
2023/05/28 07:10:28;;;;;;;194.65;69.68;;;;;;;21.91;50.75;102009.53;4993743;28;20026;-73
2023/05/28 07:12:53;;;;;;;194.27;69.60;;;;;;;21.82;50.55;102004.63;4993827;28;20035;-72
2023/05/28 07:15:18;;;;;;;201.20;70.90;;;;;;;21.61;51.45;102007.25;4975639;28;20105;-72
2023/05/28 07:17:44;;;;;;;197.85;70.07;;;;;;;21.50;52.25;102009.47;4975094;28;20499;-72
2023/05/28 07:20:09;;;;;;;187.85;67.18;;;;;;;21.45;52.00;102011.47;4977467;28;20480;-73
2023/05/28 07:22:34;;;;;;;192.85;69.40;;;;;;;21.39;52.14;102011.69;4977180;28;20480;-73
2023/05/28 07:25:00;;;;;;;194.13;68.90;;;;;;;21.42;52.03;102023.09;4960246;28;20114;-72
2023/05/28 07:27:25;;;;;;;199.75;68.75;;;;;;;21.55;51.76;102014.63;4976999;28;20049;-73
2023/05/28 07:29:50;;;;;;;186.77;68.53;;;;;;;21.81;50.70;102018.00;4994030;28;20108;-73
2023/05/28 07:32:16;;;;;;;189.15;67.65;;;;;;;22.05;50.31;102019.59;4976522;28;20022;-73
2023/05/28 07:34:41;;;;;;;192.65;66.78;;;;;;;22.20;50.34;102019.84;4995188;28;20026;-74
2023/05/28 07:37:06;;;;;;;187.27;67.60;;;;;;;22.35;49.35;102024.50;4970111;28;20087;-74
2023/05/28 07:39:32;;;;;;;193.82;68.78;;;;;;;22.54;48.83;102029.00;4984548;28;20021;-73
2023/05/28 07:41:57;;;;;;;193.90;68.82;;;;;;;22.74;48.58;102025.41;4982406;28;20030;-74
2023/05/28 07:44:23;;;;;;;193.70;67.93;;;;;;;22.89;48.97;102019.38;4984274;28;20037;-72
2023/05/28 07:46:48;;;;;;;194.88;69.22;;;;;;;22.95;48.46;102023.56;4992118;28;20022;-71
2023/05/28 07:49:13;;;;;;;183.80;66.85;;;;;;;23.05;47.82;102027.47;4957300;28;20412;-74
2023/05/28 07:51:39;;;;;;;193.45;69.55;;;;;;;23.25;47.80;102020.38;4963995;28;20034;-73
2023/05/28 07:54:04;;;;;;;197.23;72.28;;;;;;;23.44;47.18;102021.19;4992644;28;20116;-73
2023/05/28 07:56:30;;;;;;;199.52;70.53;;;;;;;23.80;46.28;102012.28;4976408;28;20101;-73
2023/05/28 07:58:56;;;;;;;207.77;72.13;;;;;;;24.06;46.11;102017.22;4975870;28;20018;-74
2023/05/28 08:01:21;;;;;;;190.05;67.93;;;;;;;24.28;45.04;102019.63;4972402;28;20488;-73
2023/05/28 08:03:51;;;;;;;199.05;70.40;;;;;;;24.42;45.13;102011.75;4973906;28;20034;-74
2023/05/28 08:06:17;;;;;;;193.85;69.78;;;;;;;24.55;44.54;102016.41;4992709;28;20110;-73
2023/05/28 08:08:43;;;;;;;200.25;72.03;;;;;;;24.62;44.35;102015.16;4969799;28;20045;-74
2023/05/28 08:11:10;;;;;;;191.45;70.65;;;;;;;24.78;43.55;102016.03;4972440;28;20038;-74
2023/05/28 08:13:36;;;;;;;188.00;69.97;;;;;;;24.85;43.31;102005.84;4989842;28;20041;-74
2023/05/28 08:16:02;;;;;;;193.68;69.32;;;;;;;24.94;43.87;102012.50;4975017;28;20030;-73
2023/05/28 08:18:28;;;;;;;198.13;71.82;;;;;;;24.86;43.98;102006.75;4976709;28;20042;-74
2023/05/28 08:20:53;;;;;;;212.02;74.32;;;;;;;24.85;44.15;102013.03;4987394;28;20088;-75
2023/05/28 08:23:18;;;;;;;192.23;69.95;;;;;;;24.88;43.36;102005.72;4974852;28;20492;-76
2023/05/28 08:25:44;;;;;;;205.88;73.57;;;;;;;24.96;44.27;102007.94;4979245;28;20535;-76
2023/05/28 08:28:09;;;;;;;185.30;71.07;;;;;;;25.03;43.83;102009.28;4966498;28;20022;-75
2023/05/28 08:30:35;;;;;;;187.00;69.40;;;;;;;25.07;43.34;102005.53;4981005;28;20106;-75
2023/05/28 08:33:01;;;;;;;192.10;70.40;;;;;;;25.18;43.32;102012.06;4977227;28;20458;-75
2023/05/28 08:35:26;;;;;;;191.57;72.32;;;;;;;25.27;42.99;102006.19;4974379;28;20105;-75
2023/05/28 08:37:51;;;;;;;189.95;69.95;;;;;;;25.40;43.06;102007.22;4954857;28;20407;-75
2023/05/28 08:40:17;;;;;;;191.85;70.65;;;;;;;25.33;42.81;102003.16;4970841;28;20033;-76
2023/05/28 08:42:43;;;;;;;188.13;70.70;;;;;;;25.36;43.35;102004.81;4990447;28;20404;-75
2023/05/28 08:45:08;;;;;;;189.00;71.22;;;;;;;25.44;43.21;102000.75;4959706;28;21334;-75
2023/05/28 08:47:36;;;;;;;187.70;69.38;;;;;;;25.43;43.49;101998.16;4960091;28;20113;-76
2023/05/28 08:50:04;;;;;;;200.00;72.43;;;;;;;25.52;43.61;102000.28;4979794;28;20081;-75
2023/05/28 08:52:31;;;;;;;194.13;71.50;;;;;;;25.56;43.14;101990.28;4957910;28;20038;-74
2023/05/28 08:54:58;;;;;;;192.50;71.18;;;;;;;25.59;43.08;101990.06;4993702;28;20030;-76
2023/05/28 08:57:24;;;;;;;196.27;70.13;;;;;;;25.69;42.69;101995.72;4948588;28;20035;-76
2023/05/28 08:59:50;;;;;;;189.93;69.63;;;;;;;25.76;42.70;101987.25;4965303;28;20022;-75
2023/05/28 09:02:16;;;;;;;195.82;71.28;;;;;;;25.84;42.50;101986.81;4969518;28;20044;-74
2023/05/28 09:04:45;;;;;;;186.20;68.75;;;;;;;25.83;43.18;101986.91;4976390;28;20022;-75
2023/05/28 09:07:11;;;;;;;184.80;70.18;;;;;;;25.89;42.44;101982.03;4964763;28;20037;-76
2023/05/28 09:09:37;;;;;;;191.55;71.38;;;;;;;25.93;42.45;101985.38;4957749;28;20031;-75
2023/05/28 09:12:05;;;;;;;182.00;70.05;;;;;;;25.92;42.35;101984.53;4972946;28;20057;-75
2023/05/28 09:14:31;;;;;;;192.40;72.78;;;;;;;26.01;42.04;101991.13;5035416;22;20050;-79
2023/05/28 09:16:56;;;;;;;191.45;72.70;;;;;;;26.03;42.60;101986.56;5029875;28;20112;-80
2023/05/28 09:19:21;;;;;;;187.57;72.20;;;;;;;26.09;42.01;101978.16;5031257;28;20043;-80
2023/05/28 09:22:01;;;;;;;209.75;75.10;;;;;;;26.09;42.32;101983.50;5011181;28;20129;-80
2023/05/28 09:24:26;;;;;;;192.18;72.10;;;;;;;26.12;42.20;101988.69;5006348;28;20034;-82
2023/05/28 09:26:56;;;;;;;200.93;73.10;;;;;;;26.14;41.99;101976.06;5006127;28;20026;-81
2023/05/28 09:29:25;;;;;;;193.60;72.90;;;;;;;26.11;42.11;101976.25;5007650;28;20054;-81
2023/05/28 09:31:56;;;;;;;188.10;71.50;;;;;;;26.11;42.40;101976.25;5011177;28;20069;-80
2023/05/28 09:34:29;;;;;;;198.70;72.53;;;;;;;26.15;42.67;101976.91;5007300;28;20083;-81
2023/05/28 09:37:08;;;;;;;201.52;75.32;;;;;;;26.17;42.57;101971.47;4995099;28;20108;-81
2023/05/28 09:39:33;;;;;;;189.52;73.22;;;;;;;26.20;42.21;101973.97;5004903;28;20387;-81
2023/05/28 09:42:03;;;;;;;188.95;70.85;;;;;;;26.36;42.37;101977.38;5007052;28;20034;-82
2023/05/28 09:44:33;;;;;;;198.23;73.50;;;;;;;26.33;42.61;101969.56;5005559;28;20031;-81
2023/05/28 09:46:58;;;;;;;210.60;73.00;;;;;;;26.39;42.45;101971.84;5009954;28;20108;-83
2023/05/28 09:49:24;;;;;;;208.77;73.68;;;;;;;27.45;39.75;101973.97;5011367;28;20126;-80
2023/05/28 09:51:52;;;;;;;202.32;71.90;;;;;;;26.88;40.81;101983.09;4996847;28;20565;-77
2023/05/28 09:54:19;;;;;;;225.98;74.65;;;;;;;26.27;42.76;101965.44;5007402;28;20125;-77
2023/05/28 09:56:45;;;;;;;226.50;77.03;;;;;;;25.50;44.11;101966.53;5004704;28;20076;-80
2023/05/28 09:59:12;;;;;;;211.48;74.00;;;;;;;24.53;46.36;101975.56;4991222;28;20575;-77
2023/05/28 10:01:43;;;;;;;222.00;74.10;;;;;;;24.44;45.24;101961.75;5009372;28;20041;-77
2023/05/28 10:04:10;;;;;;;245.30;80.25;;;;;;;24.53;43.34;101964.88;5008562;28;20487;-80
2023/05/28 10:06:38;;;;;;;240.88;79.20;;;;;;;24.51;42.81;101966.78;4990412;28;20116;-78
2023/05/28 10:09:04;;;;;;;239.60;79.88;;;;;;;24.51;42.14;101958.78;5007377;28;20037;-79
2023/05/28 10:11:43;;;;;;;211.00;74.80;;;;;;;24.37;42.21;101960.38;5013818;28;20022;-79
2023/05/28 10:14:09;;;;;;;213.82;75.32;;;;;;;24.07;42.75;101962.91;5018544;28;20029;-79
2023/05/28 10:16:35;;;;;;;214.40;76.13;;;;;;;23.77;43.88;101967.06;5004852;28;20029;-80
2023/05/28 10:19:01;;;;;;;222.35;77.97;;;;;;;23.65;44.81;101962.38;5018238;28;20590;-79
2023/05/28 10:21:27;;;;;;;213.70;77.63;;;;;;;23.59;44.15;101954.72;5012689;28;20029;-77
2023/05/28 10:23:52;;;;;;;215.23;76.53;;;;;;;23.50;44.84;101963.16;5016922;28;20026;-78
2023/05/28 10:26:18;;;;;;;206.38;74.53;;;;;;;23.36;44.43;101964.72;4998331;28;20021;-77
2023/05/28 10:28:44;;;;;;;219.43;77.57;;;;;;;23.39;44.15;101959.22;5016263;28;20068;-79
2023/05/28 10:31:10;;;;;;;208.38;76.22;;;;;;;23.23;44.47;101958.28;5006256;28;20026;-78
2023/05/28 10:33:43;;;;;;;215.63;76.53;;;;;;;23.21;44.79;101960.16;5005795;28;20025;-79
2023/05/28 10:36:11;;;;;;;211.52;76.72;;;;;;;23.19;45.01;101951.38;5006237;28;20022;-78
2023/05/28 10:38:50;;;;;;;214.95;76.63;;;;;;;23.14;44.67;101956.94;4995258;28;20066;-78
2023/05/28 10:41:21;;;;;;;214.43;76.70;;;;;;;23.08;44.83;101959.88;5003847;28;20064;-78
2023/05/28 10:43:50;;;;;;;222.73;76.95;;;;;;;22.98;44.00;101958.59;5005795;28;20395;-79
2023/05/28 10:46:25;;;;;;;213.88;75.60;;;;;;;22.87;45.28;101951.97;5006261;28;20045;-78
2023/05/28 10:49:08;;;;;;;214.95;76.30;;;;;;;22.76;45.61;101955.16;5017765;28;20042;-78
2023/05/28 10:51:46;;;;;;;218.63;76.10;;;;;;;22.71;44.66;101956.31;5013237;28;20083;-78
2023/05/28 10:54:15;;;;;;;225.00;76.75;;;;;;;22.71;44.93;101961.66;5017823;28;20030;-79
2023/05/28 10:57:09;;;;;;;209.95;77.80;;;;;;;22.67;43.56;101958.25;5019535;28;20045;-79
2023/05/28 10:59:58;;;;;;;209.50;76.93;;;;;;;22.61;44.30;101961.22;5016180;28;20041;-77